createdAt,value
2019-06-08T00:01:34.452Z,101250.78
2019-06-08T00:04:08.749Z,101243.75
2019-06-08T00:06:38.572Z,101253.06
2019-06-08T00:09:08.660Z,101232.81
2019-06-08T00:11:40.154Z,101227.00
2019-06-08T00:14:09.866Z,101238.48
2019-06-08T00:16:40.727Z,101242.94
2019-06-08T00:19:10.285Z,101234.95
2019-06-08T00:21:40.051Z,101244.67
2019-06-08T00:24:09.591Z,101250.37
2019-06-08T00:26:39.580Z,101257.04
2019-06-08T00:29:14.196Z,101256.74
2019-06-08T00:31:46.096Z,101257.73
2019-06-08T00:34:24.850Z,101247.20
2019-06-08T00:36:54.915Z,101242.48
2019-06-08T00:39:25.414Z,101231.98
2019-06-08T00:41:56.952Z,101232.50
2019-06-08T00:44:31.740Z,101236.09
2019-06-08T00:47:03.372Z,101232.56
2019-06-08T00:49:37.776Z,101239.22
2019-06-08T00:52:10.226Z,101246.25
2019-06-08T00:54:42.323Z,101249.78
2019-06-08T00:57:15.074Z,101254.09
2019-06-08T00:59:52.279Z,101247.88
2019-06-08T01:02:24.626Z,101257.59
2019-06-08T01:05:03.048Z,101259.90
2019-06-08T01:07:39.374Z,101247.13
2019-06-08T01:10:11.690Z,101257.34
2019-06-08T01:12:44.824Z,101240.10
2019-06-08T01:15:16.914Z,101238.95
2019-06-08T01:18:02.258Z,101236.20
2019-06-08T01:20:38.895Z,101236.75
2019-06-08T01:23:09.060Z,101238.20
2019-06-08T01:25:41.136Z,101234.73
2019-06-08T01:28:11.841Z,101249.84
2019-06-08T01:30:42.406Z,101248.14
2019-06-08T01:33:13.921Z,101242.88
2019-06-08T01:35:45.776Z,101252.55
2019-06-08T01:38:18.114Z,101257.84
2019-06-08T01:40:49.839Z,101249.91
2019-06-08T01:43:21.652Z,101258.79
2019-06-08T01:45:53.759Z,101252.61
2019-06-08T01:48:26.296Z,101252.14
2019-06-08T01:50:55.968Z,101260.97
2019-06-08T01:53:26.835Z,101272.09
2019-06-08T01:55:58.113Z,101275.68
2019-06-08T01:58:27.602Z,101265.94
2019-06-08T02:00:59.226Z,101241.67
2019-06-08T02:03:32.711Z,101238.61
2019-06-08T02:06:04.766Z,101239.47
2019-06-08T02:08:39.189Z,101240.20
2019-06-08T02:11:10.736Z,101225.98
2019-06-08T02:13:42.248Z,101219.33
2019-06-08T02:16:12.672Z,101221.50
2019-06-08T02:18:50.796Z,101210.91
2019-06-08T02:21:20.112Z,101210.50
2019-06-08T02:23:51.001Z,101217.19
2019-06-08T02:26:22.158Z,101209.24
2019-06-08T02:28:55.009Z,101207.48
2019-06-08T02:31:27.839Z,101211.01
2019-06-08T02:34:01.247Z,101210.16
2019-06-08T02:36:37.583Z,101208.83
2019-06-08T02:39:10.004Z,101204.96
2019-06-08T02:41:40.834Z,101204.05
2019-06-08T02:44:12.456Z,101212.94
2019-06-08T02:46:42.889Z,101207.54
2019-06-08T02:49:22.491Z,101203.63
2019-06-08T02:51:54.422Z,101201.02
2019-06-08T02:54:27.965Z,101202.31
2019-06-08T02:57:00.626Z,101204.08
2019-06-08T02:59:32.917Z,101199.63
2019-06-08T03:02:04.562Z,101203.98
2019-06-08T03:04:39.397Z,101204.42
2019-06-08T03:07:11.365Z,101202.18
2019-06-08T03:09:42.301Z,101205.67
2019-06-08T03:12:11.863Z,101209.58
2019-06-08T03:14:42.863Z,101207.75
2019-06-08T03:17:13.014Z,101211.69
2019-06-08T03:19:42.613Z,101220.03
2019-06-08T03:22:12.220Z,101227.95
2019-06-08T03:24:44.048Z,101222.11
2019-06-08T03:27:13.458Z,101241.06
2019-06-08T03:29:43.977Z,101250.70
2019-06-08T03:32:14.240Z,101236.87
2019-06-08T03:34:55.109Z,101225.27
2019-06-08T03:37:18.068Z,101235.95
2019-06-08T03:39:48.196Z,101227.84
2019-06-08T03:42:19.533Z,101229.02
2019-06-08T03:44:49.437Z,101224.96
2019-06-08T03:47:19.028Z,101221.75
2019-06-08T03:49:56.603Z,101218.64
2019-06-08T03:52:20.806Z,101204.55
2019-06-08T03:54:51.164Z,101204.86
2019-06-08T03:57:22.548Z,101194.58
2019-06-08T03:59:53.554Z,101189.27
2019-06-08T04:02:23.202Z,101183.48
2019-06-08T04:04:53.350Z,101186.48
2019-06-08T04:07:24.323Z,101175.30
2019-06-08T04:09:54.186Z,101179.09
2019-06-08T04:12:24.973Z,101178.16
2019-06-08T04:14:55.087Z,101167.55
2019-06-08T04:17:24.710Z,101063.34
2019-06-08T04:20:09.325Z,101179.30
2019-06-08T04:22:26.703Z,101183.13
2019-06-08T04:24:57.252Z,101180.82
2019-06-08T04:27:27.055Z,101192.27
2019-06-08T04:29:56.830Z,101194.39
2019-06-08T04:32:26.355Z,101193.84
2019-06-08T04:34:58.976Z,101192.13
2019-06-08T04:37:29.083Z,101188.24
2019-06-08T04:39:59.717Z,101181.16
2019-06-08T04:42:30.047Z,101188.14
2019-06-08T04:45:00.427Z,101175.21
2019-06-08T04:47:31.164Z,101177.67
2019-06-08T04:50:20.779Z,101173.52
2019-06-08T04:52:36.250Z,101179.17
2019-06-08T04:55:06.987Z,101181.59
2019-06-08T04:57:36.762Z,101174.73
2019-06-08T05:00:12.992Z,101161.27
2019-06-08T05:02:44.039Z,101156.57
2019-06-08T05:05:13.555Z,101149.37
2019-06-08T05:07:44.288Z,101143.69
2019-06-08T05:10:15.071Z,101139.06
2019-06-08T05:12:47.841Z,101130.66
2019-06-08T05:15:26.251Z,101106.53
2019-06-08T05:17:58.118Z,101106.16
2019-06-08T05:20:38.205Z,101095.74
2019-06-08T05:23:07.594Z,101097.77
2019-06-08T05:25:43.139Z,101108.14
2019-06-08T05:28:17.561Z,101102.31
2019-06-08T05:30:49.630Z,101097.28
2019-06-08T05:33:21.533Z,101093.00
2019-06-08T05:35:56.524Z,101083.09
2019-06-08T05:38:26.436Z,101102.16
2019-06-08T05:40:57.541Z,101099.57
2019-06-08T05:43:29.413Z,101100.39
2019-06-08T05:46:01.210Z,101099.72
2019-06-08T05:48:31.259Z,101098.03
2019-06-08T05:51:04.273Z,101120.07
2019-06-08T05:53:39.694Z,101124.46
2019-06-08T05:56:11.923Z,101123.92
2019-06-08T05:58:43.955Z,101122.16
2019-06-08T06:01:16.840Z,101123.18
2019-06-08T06:03:48.899Z,101123.48
2019-06-08T06:06:23.580Z,101128.42
2019-06-08T06:08:55.481Z,101133.98
2019-06-08T06:11:26.728Z,101131.89
2019-06-08T06:13:57.007Z,101132.34
2019-06-08T06:16:27.504Z,101118.44
2019-06-08T06:18:58.751Z,101116.60
2019-06-08T06:21:29.605Z,101114.25
2019-06-08T06:24:02.982Z,101103.37
2019-06-08T06:26:38.175Z,101093.55
2019-06-08T06:29:08.600Z,101087.54
2019-06-08T06:31:39.129Z,101086.64
2019-06-08T06:34:10.409Z,101103.66
2019-06-08T06:36:41.701Z,101108.67
2019-06-08T06:39:13.230Z,101114.29
2019-06-08T06:41:44.062Z,101111.50
2019-06-08T06:44:14.236Z,101129.71
2019-06-08T06:46:44.180Z,101120.44
2019-06-08T06:49:14.799Z,101128.58
2019-06-08T06:51:44.798Z,101129.34
2019-06-08T06:54:14.592Z,101144.36
2019-06-08T06:56:45.298Z,101152.48
2019-06-08T06:59:15.948Z,101182.30
2019-06-08T07:01:47.466Z,101194.37
2019-06-08T07:04:17.898Z,101213.60
2019-06-08T07:06:48.127Z,101220.53
2019-06-08T07:09:19.524Z,101221.40
2019-06-08T07:11:50.958Z,101220.20
2019-06-08T07:14:27.295Z,101243.73
2019-06-08T07:16:56.717Z,101256.79
2019-06-08T07:19:26.603Z,101251.59
2019-06-08T07:21:58.593Z,101241.09
2019-06-08T07:24:28.946Z,101259.91
2019-06-08T07:27:02.831Z,101262.05
2019-06-08T07:29:33.149Z,101273.39
2019-06-08T07:32:05.466Z,101265.72
2019-06-08T07:34:40.984Z,101247.02
2019-06-08T07:37:08.935Z,101240.03
2019-06-08T07:39:40.979Z,101249.63
2019-06-08T07:42:12.317Z,101252.84
2019-06-08T07:44:43.568Z,101260.87
2019-06-08T07:47:14.401Z,101248.73
2019-06-08T07:49:51.125Z,101266.90
2019-06-08T07:52:22.145Z,101266.19
2019-06-08T07:54:54.684Z,101269.84
2019-06-08T07:57:26.165Z,101261.05
2019-06-08T07:59:56.337Z,101258.77
2019-06-08T08:02:28.553Z,101223.78
2019-06-08T08:04:58.856Z,101173.66
2019-06-08T08:07:29.874Z,101168.67
2019-06-08T08:10:00.408Z,101174.89
2019-06-08T08:12:31.263Z,101181.12
2019-06-08T08:15:00.835Z,101193.42
2019-06-08T08:17:34.318Z,101207.65
2019-06-08T08:20:03.389Z,101217.97
2019-06-08T08:22:34.171Z,101213.30
2019-06-08T08:25:05.086Z,101188.27
2019-06-08T08:27:37.390Z,101184.62
2019-06-08T08:30:08.447Z,101182.73
2019-06-08T08:32:38.587Z,101175.29
2019-06-08T08:35:09.405Z,101181.44
2019-06-08T08:37:40.015Z,101209.92
2019-06-08T08:40:09.894Z,101219.72
2019-06-08T08:42:48.269Z,101215.80
2019-06-08T08:45:20.088Z,101210.96
2019-06-08T08:48:14.441Z,101218.76
2019-06-08T08:50:29.207Z,101218.06
2019-06-08T08:53:08.351Z,101224.70
2019-06-08T08:55:40.140Z,101235.83
2019-06-08T08:58:12.835Z,101248.69
2019-06-08T09:00:44.363Z,101235.73
2019-06-08T09:03:33.727Z,101246.80
2019-06-08T09:06:04.687Z,101253.51
2019-06-08T09:08:41.261Z,101260.59
2019-06-08T09:11:12.976Z,101258.70
2019-06-08T09:13:48.906Z,101245.35
2019-06-08T09:16:31.054Z,101234.78
2019-06-08T09:19:04.461Z,101227.68
2019-06-08T09:21:38.506Z,101241.98
2019-06-08T09:24:10.762Z,101244.70
2019-06-08T09:27:03.996Z,101258.48
2019-06-08T09:30:00.709Z,101264.70
2019-06-08T09:32:34.182Z,101272.67
2019-06-08T09:35:05.287Z,101271.72
2019-06-08T09:37:37.572Z,101271.56
2019-06-08T09:40:10.460Z,101266.63
2019-06-08T09:42:44.264Z,101259.75
2019-06-08T09:45:32.556Z,101254.63
2019-06-08T09:48:10.515Z,101250.98
2019-06-08T09:50:45.312Z,101250.65
2019-06-08T09:53:28.482Z,101249.75
2019-06-08T09:55:53.293Z,101254.63
2019-06-08T09:58:31.651Z,101248.98
2019-06-08T10:01:13.388Z,101243.23
2019-06-08T10:03:48.246Z,101246.39
2019-06-08T10:06:18.402Z,101237.02
2019-06-08T10:08:50.317Z,101229.80
2019-06-08T10:11:21.520Z,101220.06
2019-06-08T10:13:54.502Z,101221.61
2019-06-08T10:16:38.149Z,101228.17
2019-06-08T10:19:12.643Z,101226.84
2019-06-08T10:21:45.135Z,101225.08
2019-06-08T10:24:17.086Z,101232.24
2019-06-08T10:26:49.921Z,101244.13
2019-06-08T10:29:26.276Z,101254.30
2019-06-08T10:32:03.783Z,101252.55
2019-06-08T10:34:38.633Z,101253.01
2019-06-08T10:37:12.985Z,101249.81
2019-06-08T10:39:49.365Z,101251.48
2019-06-08T10:42:25.412Z,101252.60
2019-06-08T10:44:59.334Z,101250.65
2019-06-08T10:47:29.757Z,101240.27
2019-06-08T10:50:09.146Z,101238.66
2019-06-08T10:52:38.959Z,101241.09
2019-06-08T10:55:10.352Z,101241.59
2019-06-08T10:57:43.032Z,101244.58
2019-06-08T11:00:22.658Z,101235.10
2019-06-08T11:02:50.008Z,101235.88
2019-06-08T11:05:21.868Z,101227.58
2019-06-08T11:07:53.213Z,101217.78
2019-06-08T11:10:25.483Z,101222.23
2019-06-08T11:13:04.411Z,101223.84
2019-06-08T11:18:24.265Z,101222.96
2019-06-08T11:21:06.334Z,101210.61
2019-06-08T11:23:41.599Z,101211.42
2019-06-08T11:26:20.960Z,101217.72
2019-06-08T11:28:53.521Z,101218.52
2019-06-08T11:31:29.794Z,101232.01
2019-06-08T11:34:02.659Z,101231.19
2019-06-08T11:36:36.093Z,101234.99
2019-06-08T11:39:11.317Z,101239.07
2019-06-08T11:41:42.390Z,101232.06
2019-06-08T11:44:14.824Z,101228.67
2019-06-08T11:46:51.130Z,101233.72
2019-06-08T11:49:23.526Z,101223.92
2019-06-08T11:51:58.306Z,101229.09
2019-06-08T11:54:49.530Z,101228.50
2019-06-08T11:57:28.330Z,101228.95
2019-06-08T12:00:10.763Z,101221.92
2019-06-08T12:02:48.602Z,101222.42
2019-06-08T12:05:18.452Z,101218.44
2019-06-08T12:07:51.263Z,101212.21
2019-06-08T12:10:21.976Z,101213.61
2019-06-08T12:12:52.037Z,101217.72
2019-06-08T12:15:33.363Z,101215.54
2019-06-08T12:18:08.336Z,101217.66
2019-06-08T12:20:42.398Z,101209.19
2019-06-08T12:23:15.914Z,101216.74
2019-06-08T12:25:50.087Z,101207.14
2019-06-08T12:28:27.929Z,101202.19
2019-06-08T12:31:00.993Z,101205.09
2019-06-08T12:33:39.196Z,101204.56
2019-06-08T12:36:20.985Z,101200.47
2019-06-08T12:38:59.086Z,101213.61
2019-06-08T12:41:33.997Z,101202.92
2019-06-08T12:44:14.677Z,101192.75
2019-06-08T12:46:44.029Z,101200.03
2019-06-08T12:49:25.326Z,101194.89
2019-06-08T12:51:59.877Z,101188.99
2019-06-08T12:54:34.841Z,101197.29
2019-06-08T12:57:13.419Z,101207.45
2019-06-08T12:59:45.524Z,101214.77
2019-06-08T13:02:22.037Z,101218.14
2019-06-08T13:05:04.362Z,101226.16
2019-06-08T13:07:38.535Z,101222.33
2019-06-08T13:10:13.338Z,101227.74
2019-06-08T13:12:43.528Z,101232.97
2019-06-08T13:15:21.723Z,101239.12
2019-06-08T13:17:55.056Z,101235.86
2019-06-08T13:20:29.516Z,101226.86
2019-06-08T13:23:04.470Z,101241.72
2019-06-08T13:25:40.987Z,101234.92
2019-06-08T13:28:15.413Z,101249.17
2019-06-08T13:30:44.468Z,101250.05
2019-06-08T13:33:16.753Z,101243.24
2019-06-08T13:35:51.075Z,101238.70
2019-06-08T13:38:23.156Z,101239.63
2019-06-08T13:40:54.326Z,101238.08
2019-06-08T13:43:28.278Z,101228.41
2019-06-08T13:45:58.481Z,101241.14
2019-06-08T13:48:28.478Z,101252.98
2019-06-08T13:51:01.898Z,101238.75
2019-06-08T13:53:38.159Z,101247.95
2019-06-08T13:56:10.607Z,101251.72
2019-06-08T13:58:41.803Z,101244.55
2019-06-08T14:01:15.459Z,101250.00
2019-06-08T14:03:51.720Z,101256.44
2019-06-08T14:06:37.000Z,101265.41
2019-06-08T14:09:11.689Z,101263.30
2019-06-08T14:11:42.967Z,101267.31
2019-06-08T14:14:14.930Z,101259.11
2019-06-08T14:16:50.261Z,101262.86
2019-06-08T14:19:21.716Z,101265.94
2019-06-08T14:21:59.812Z,101251.65
2019-06-08T14:24:39.482Z,101262.91
2019-06-08T14:27:10.691Z,101253.45
2019-06-08T14:29:44.047Z,101268.72
2019-06-08T14:32:14.857Z,101270.69
2019-06-08T14:34:50.314Z,101272.69
2019-06-08T14:37:24.830Z,101277.53
2019-06-08T14:39:58.876Z,101266.24
2019-06-08T14:42:31.814Z,101271.28
2019-06-08T14:45:02.767Z,101280.92
2019-06-08T14:47:39.783Z,101278.78
2019-06-08T14:50:13.342Z,101281.35
2019-06-08T14:52:47.930Z,101272.33
2019-06-08T14:55:21.751Z,101285.48
2019-06-08T14:57:52.342Z,101286.72
2019-06-08T15:00:25.662Z,101272.53
2019-06-08T15:03:03.594Z,101279.89
2019-06-08T15:05:37.687Z,101283.42
2019-06-08T15:08:31.159Z,101284.34
2019-06-08T15:11:08.062Z,101277.44
2019-06-08T15:13:40.450Z,101277.97
2019-06-08T15:16:10.868Z,101277.89
2019-06-08T15:18:42.579Z,101290.67
2019-06-08T15:21:20.453Z,101278.39
2019-06-08T15:23:47.789Z,101274.09
2019-06-08T15:26:28.282Z,101280.86
2019-06-08T15:28:58.590Z,101279.89
2019-06-08T15:31:32.763Z,101281.05
2019-06-08T15:34:10.489Z,101289.42
2019-06-08T15:36:40.536Z,101286.56
2019-06-08T15:39:17.696Z,101292.17
2019-06-08T15:41:48.812Z,101293.88
2019-06-08T15:44:22.815Z,101292.35
2019-06-08T15:46:54.618Z,101292.17
2019-06-08T15:49:30.660Z,101300.88
2019-06-08T15:52:02.817Z,101314.70
2019-06-08T15:54:36.233Z,101309.45
2019-06-08T15:57:07.266Z,101321.30
2019-06-08T15:59:41.842Z,101316.48
2019-06-08T16:02:11.609Z,101321.11
2019-06-08T16:05:07.948Z,101318.52
2019-06-08T16:07:43.559Z,101318.44
2019-06-08T16:10:14.358Z,101320.37
2019-06-08T16:12:45.505Z,101336.48
2019-06-08T16:15:19.148Z,101333.70
2019-06-08T16:17:50.055Z,101336.56
2019-06-08T16:20:20.388Z,101336.92
2019-06-08T16:22:51.479Z,101341.83
2019-06-08T16:25:23.176Z,101337.82
2019-06-08T16:27:53.935Z,101335.61
2019-06-08T16:30:24.145Z,101342.72
2019-06-08T16:32:54.883Z,101337.66
2019-06-08T16:35:28.120Z,101353.42
2019-06-08T16:37:58.701Z,101356.34
2019-06-08T16:40:32.006Z,101341.64
2019-06-08T16:43:03.969Z,101347.34
2019-06-08T16:45:35.218Z,101346.97
2019-06-08T16:48:05.276Z,101352.76
2019-06-08T16:50:38.527Z,101345.02
2019-06-08T16:53:10.495Z,101334.41
2019-06-08T16:55:45.110Z,101334.73
2019-06-08T16:58:16.782Z,101335.16
2019-06-08T17:00:47.660Z,101339.69
2019-06-08T17:03:18.817Z,101337.84
2019-06-08T17:05:51.135Z,101333.90
2019-06-08T17:08:23.806Z,101330.48
2019-06-08T17:10:55.167Z,101332.95
2019-06-08T17:13:30.056Z,101333.14
2019-06-08T17:16:11.928Z,101337.47
2019-06-08T17:18:49.500Z,101335.53
2019-06-08T17:21:27.852Z,101329.30
2019-06-08T17:23:58.728Z,101327.89
2019-06-08T17:26:30.490Z,101335.23
2019-06-08T17:29:06.671Z,101340.30
2019-06-08T17:31:37.222Z,101332.56
2019-06-08T17:34:22.068Z,101325.91
2019-06-08T17:36:54.312Z,101323.46
2019-06-08T17:39:49.737Z,101341.65
2019-06-08T17:42:24.351Z,101344.11
2019-06-08T17:45:01.205Z,101353.66
2019-06-08T17:47:36.325Z,101353.08
2019-06-08T17:50:27.473Z,101360.28
2019-06-08T17:52:59.852Z,101352.27
2019-06-08T17:55:29.697Z,101356.09
2019-06-08T17:57:59.774Z,101351.55
2019-06-08T18:00:30.612Z,101353.03
2019-06-08T18:03:01.717Z,101348.27
2019-06-08T18:05:31.856Z,101349.08
2019-06-08T18:08:10.146Z,101351.73
2019-06-08T18:10:42.902Z,101351.47
2019-06-08T18:13:19.183Z,101356.01
2019-06-08T18:15:59.192Z,101347.39
2019-06-08T18:18:29.539Z,101349.38
2019-06-08T18:21:08.106Z,101364.39
2019-06-08T18:23:49.156Z,101362.13
2019-06-08T18:26:22.454Z,101251.17
2019-06-08T18:28:55.393Z,101359.32
2019-06-08T18:31:27.621Z,101357.50
2019-06-08T18:34:08.925Z,101362.96
2019-06-08T18:36:45.079Z,101358.84
2019-06-08T18:39:18.340Z,101365.02
2019-06-08T18:42:01.907Z,101368.67
2019-06-08T18:44:34.968Z,101366.16
2019-06-08T18:47:21.067Z,101361.34
2019-06-08T18:50:02.464Z,101369.41
2019-06-08T18:52:49.696Z,101364.15
2019-06-08T18:55:23.989Z,101371.27
2019-06-08T18:57:57.274Z,101368.95
2019-06-08T19:00:43.234Z,101376.03
2019-06-08T19:03:13.868Z,101366.34
2019-06-08T19:05:47.167Z,101364.63
2019-06-08T19:08:18.884Z,101362.81
2019-06-08T19:10:50.494Z,101362.91
2019-06-08T19:13:21.601Z,101364.15
2019-06-08T19:16:02.102Z,101364.58
2019-06-08T19:18:38.373Z,101359.76
2019-06-08T19:21:34.542Z,101361.09
2019-06-08T19:24:18.049Z,101365.47
2019-06-08T19:29:47.527Z,101366.09
2019-06-08T19:32:20.306Z,101361.98
2019-06-08T19:34:54.002Z,101370.92
2019-06-08T19:37:33.218Z,101365.66
2019-06-08T19:40:07.467Z,101367.02
2019-06-08T19:42:51.114Z,101362.16
2019-06-08T19:45:18.577Z,101373.58
2019-06-08T19:47:53.635Z,101376.27
2019-06-08T19:50:24.760Z,101376.72
2019-06-08T19:52:57.986Z,101375.78
2019-06-08T19:55:28.881Z,101379.24
2019-06-08T19:58:02.476Z,101379.14
2019-06-08T20:00:34.739Z,101276.28
2019-06-08T20:03:07.692Z,101378.40
2019-06-08T20:05:45.287Z,101380.56
2019-06-08T20:08:19.940Z,101383.13
2019-06-08T20:10:57.470Z,101381.80
2019-06-08T20:13:28.879Z,101383.22
2019-06-08T20:16:02.269Z,101386.72
2019-06-08T20:18:53.043Z,101394.73
2019-06-08T20:21:23.795Z,101390.92
2019-06-08T20:23:58.339Z,101385.20
2019-06-08T20:26:44.230Z,101384.77
2019-06-08T20:29:19.832Z,101399.33
2019-06-08T20:31:51.556Z,101387.69
2019-06-08T20:34:27.027Z,101391.98
2019-06-08T20:37:02.076Z,101391.53
2019-06-08T20:39:38.461Z,101395.47
2019-06-08T20:42:13.160Z,101387.09
2019-06-08T20:44:49.068Z,101385.83
2019-06-08T20:47:20.742Z,101389.33
2019-06-08T20:49:58.294Z,101380.61
2019-06-08T20:52:29.347Z,101380.56
2019-06-08T20:55:01.883Z,101371.22
2019-06-08T20:57:34.967Z,101362.91
2019-06-08T21:00:11.631Z,101368.13
2019-06-08T21:02:41.739Z,101352.63
2019-06-08T21:05:18.260Z,101368.30
2019-06-08T21:07:54.134Z,101359.55
2019-06-08T21:10:28.173Z,101350.95
2019-06-08T21:13:03.961Z,101344.01
2019-06-08T21:15:38.248Z,101355.80
2019-06-08T21:18:14.127Z,101361.11
2019-06-08T21:20:47.610Z,101370.92
2019-06-08T21:23:20.904Z,101365.77
2019-06-08T21:25:53.667Z,101365.81
2019-06-08T21:28:24.163Z,101368.50
2019-06-08T21:30:58.230Z,101374.77
2019-06-08T21:33:32.404Z,101371.78
2019-06-08T21:36:11.003Z,101375.80
2019-06-08T21:38:47.510Z,101378.44
2019-06-08T21:41:18.823Z,101364.19
2019-06-08T21:43:54.207Z,101369.37
2019-06-08T21:46:23.321Z,101366.73
2019-06-08T21:48:58.428Z,101360.13
2019-06-08T21:51:31.141Z,101359.17
2019-06-08T21:54:02.212Z,101365.28
2019-06-08T21:56:32.923Z,101362.19
2019-06-08T21:59:04.659Z,101364.16
2019-06-08T22:01:37.422Z,101358.00
2019-06-08T22:04:10.208Z,101369.05
2019-06-08T22:06:43.271Z,101367.80
2019-06-08T22:09:14.990Z,101369.60
2019-06-08T22:12:00.773Z,101370.45
2019-06-08T22:14:52.803Z,101371.70
2019-06-08T22:17:27.800Z,101366.73
2019-06-08T22:20:00.852Z,101360.50
2019-06-08T22:22:31.422Z,101360.91
2019-06-08T22:25:08.128Z,101357.84
2019-06-08T22:27:40.805Z,101359.09
2019-06-08T22:30:22.882Z,101356.08
2019-06-08T22:32:43.582Z,101370.19
2019-06-08T22:35:16.001Z,101375.02
2019-06-08T22:37:53.272Z,101383.45
2019-06-08T22:40:23.417Z,101368.02
2019-06-08T22:42:54.605Z,101364.44
2019-06-08T22:45:34.643Z,101359.69
2019-06-08T22:48:13.442Z,101384.56
2019-06-08T22:50:47.674Z,101369.97
2019-06-08T22:53:21.344Z,101382.91
2019-06-08T22:55:59.640Z,101386.44
2019-06-08T22:58:40.600Z,101381.64
2019-06-08T23:01:13.724Z,101395.48
2019-06-08T23:03:43.837Z,101387.66
2019-06-08T23:06:27.950Z,101385.92
2019-06-08T23:09:00.942Z,101380.59
2019-06-08T23:11:31.123Z,101385.86
2019-06-08T23:14:04.088Z,101382.27
2019-06-08T23:16:34.751Z,101384.53
2019-06-08T23:19:07.839Z,101383.25
2019-06-08T23:21:38.369Z,101387.62
2019-06-08T23:24:13.226Z,101385.83
2019-06-08T23:26:48.002Z,101381.85
2019-06-08T23:29:18.197Z,101387.59
2019-06-08T23:31:50.487Z,101390.69
2019-06-08T23:37:24.511Z,101381.89
2019-06-08T23:39:57.939Z,101381.38
2019-06-08T23:42:31.810Z,101382.30
2019-06-08T23:45:03.784Z,101373.90
2019-06-08T23:47:34.933Z,101378.73
2019-06-08T23:50:09.879Z,101381.38
2019-06-08T23:52:47.545Z,101376.99
2019-06-08T23:55:18.174Z,101382.33
2019-06-08T23:57:51.559Z,101382.70
